Gifford, Washington
Current Conditions -  °F | °C
As of 11:30 AM on Thursday 23 Oct 2014 (Local Time) from KDEW Reporting Station
Light Rain Light Rain  
Wind Chill: 52°   Ceiling: 1400
Heat Index: 52°   Visibility: 10mi
Dew Point: 49°   Wind: 8mph
Humidity: 89%   Direction: 250°WSW
Pressure: 29.79"   Gusts: NA
Location:  48.31°N, 118.15°W
Report Text: KDEW 231830Z AUTO 25007KT 10SM -RA FEW009 BKN014 OVC029 11/09 A2979 RMK AO2 P0000 T01110094
Loading
Personal Weather Stations






























Interactive Weather Map
Tropical Storm Tracking
New forecast layout! Learn more

10-Day Weather Forecast

Advertisements
Track Severe Weather on mobile